Flight Track Log - Related Links

Times and Time Zones

All times are in EDT time to prevent confusion due to time zone crossing. See the N569SC flight status page for this flight to view local times or setup timezone preferences in your user account.

Time Position Orientation Groundspeed Altitude Reporting Facility
EDT Latitude Longitude Course Direction KTS MPH feet Rate Location/Type
Wed 12:13:10 PM 42.4761 -89.0417 171° South 250 288 7,900  Level Chicago Center
Wed 12:14:12 PM 42.4208 -88.9664 135° Southeast 282 325 11,100 3,194 Climbing Chicago Center
Wed 12:15:14 PM 42.3658 -88.8956 136° Southeast 275 316 14,500 2,976 Climbing Chicago Center
Wed 12:16:15 PM 42.3050 -88.8142 135° Southeast 299 344 17,200 2,683 Climbing Chicago Center
Wed 12:17:00 PM 42.1791 -88.4885 137° Southeast  Level Estimated
Wed 12:17:17 PM 42.2419 -88.7286 135° Southeast 322 371 20,000  Level Chicago Center
Wed 12:18:19 PM 42.1764 -88.6425 136° Southeast 329 379 22,400 2,274 Climbing Chicago Center
Wed 12:19:21 PM 42.1064 -88.5492 135° Southeast 351 404 24,700 1,258 Climbing Chicago Center
Wed 12:20:23 PM 42.0181 -88.4336 136° Southeast 370 426 25,000 878 Climbing Chicago Center
Wed 12:21:24 PM 41.9453 -88.3383 136° Southeast 366 421 26,500 1,756 Climbing Chicago Center
Wed 12:22:26 PM 41.8711 -88.2406 136° Southeast 373 429 28,600 2,032 Climbing Chicago Center
Wed 12:23:28 PM 41.7947 -88.1406 136° Southeast 383 441 30,700 1,935 Climbing Chicago Center
Wed 12:24:30 PM 41.7156 -88.0372 136° Southeast 394 453 32,600 1,790 Climbing Chicago Center
Wed 12:25:32 PM 41.6339 -87.9314 136° Southeast 405 466 34,400 2,012 Climbing Chicago Center
Wed 12:27:17 PM 41.4886 -87.7433 136° Southeast 398 458 38,200 2,177 Climbing Indianapolis Center
Wed 12:27:36 PM 41.4578 -87.7036 136° Southeast 394 453 38,900 1,852 Climbing Chicago Center
Wed 12:28:38 PM 41.3792 -87.6033 136° Southeast 391 450 40,700 1,742 Climbing Chicago Center
Wed 12:29:40 PM 41.3042 -87.5069 136° Southeast 380 437 42,500 1,258 Climbing Chicago Center
Wed 12:30:42 PM 41.2283 -87.4114 137° Southeast 376 433 43,300 774 Climbing Chicago Center
Wed 12:31:44 PM 41.1497 -87.3131 137° Southeast 387 445 44,100 726 Climbing Chicago Center
Wed 12:32:46 PM 41.0706 -87.2139 137° Southeast 392 451 44,800 435 Climbing Chicago Center
Wed 12:33:48 PM 40.9767 -87.0939 136° Southeast 394 453 45,000 97 Climbing Chicago Center
Wed 12:34:50 PM 40.8931 -86.9906 137° Southeast 409 471 45,000 145 Level Chicago Center
Wed 12:35:52 PM 40.8086 -86.8864 137° Southeast 417 480 45,300 435 Climbing Chicago Center
Wed 12:36:54 PM 40.7242 -86.7794 136° Southeast 422 486 45,900 581 Climbing Chicago Center
Wed 12:37:56 PM 40.6406 -86.6758 137° Southeast 416 479 46,500 532 Climbing Chicago Center
Wed 12:38:58 PM 40.5422 -86.5556 137° Southeast 412 474 47,000 242 Climbing Chicago Center
Wed 12:40:00 PM 40.4581 -86.4508 137° Southeast 415 478 47,000  Level Chicago Center
Wed 12:41:02 PM 40.3714 -86.3458 137° Southeast 419 482 47,000  Level Chicago Center
Wed 12:42:05 PM 40.2839 -86.2381 137° Southeast 426 490 47,000  Level Chicago Center
Wed 12:43:07 PM 40.1967 -86.1303 137° Southeast 426 490 47,000  Level Chicago Center
Wed 12:44:09 PM 40.1075 -86.0225 137° Southeast 429 494 47,000  Level Chicago Center
Wed 12:44:49 PM 40.0475 -85.9506 137° Southeast 429 494 47,000  Level Indianapolis Center
Wed 12:45:51 PM 39.9592 -85.8439 137° Southeast 428 493 47,000  Level Indianapolis Center
Wed 12:46:53 PM 39.8708 -85.7383 137° Southeast 426 490 47,000  Level Indianapolis Center
Wed 12:47:55 PM 39.7675 -85.6156 138° Southeast 426 490 47,000  Level Indianapolis Center
Wed 12:48:57 PM 39.6800 -85.5111 137° Southeast 424 488 47,000  Level Indianapolis Center
Wed 12:49:58 PM 39.5869 -85.4117 141° Southeast 426 490 47,000  Level Indianapolis Center
Wed 12:51:00 PM 39.4964 -85.3111 139° Southeast 427 491 47,000  Level Indianapolis Center
Wed 12:52:02 PM 39.4058 -85.2125 140° Southeast 424 488 47,000  Level Indianapolis Center
Wed 12:53:04 PM 39.3147 -85.1117 139° Southeast 426 490 47,000  Level Indianapolis Center
Wed 12:54:06 PM 39.2225 -85.0117 140° Southeast 429 494 47,000  Level Indianapolis Center
Wed 12:55:08 PM 39.1328 -84.9128 139° Southeast 424 488 47,000  Level Indianapolis Center
Wed 12:56:10 PM 39.0283 -84.8017 140° Southeast 426 490 47,000  Level Indianapolis Center
Wed 12:57:12 PM 38.9358 -84.7008 140° Southeast 429 494 47,000  Level Indianapolis Center
Wed 12:58:14 PM 38.8408 -84.5997 140° Southeast 428 493 47,000  Level Indianapolis Center
Wed 12:59:16 PM 38.7519 -84.5042 140° Southeast 429 494 47,000  Level Indianapolis Center
Wed 01:00:18 PM 38.6586 -84.4061 141° Southeast 430 495 47,000  Level Indianapolis Center
Wed 01:01:20 PM 38.5522 -84.2869 139° Southeast 429 494 47,000 -194 Level Indianapolis Center
Wed 01:02:22 PM 38.4606 -84.1881 140° Southeast 429 494 46,600 -1,113 Descending Indianapolis Center
Wed 01:03:24 PM 38.3656 -84.0928 142° Southeast 431 496 44,700 -1,742 Descending Indianapolis Center
Wed 01:04:26 PM 38.2736 -83.9939 140° Southeast 433 498 43,000 -1,548 Descending Indianapolis Center
Wed 01:05:28 PM 38.1819 -83.9003 141° Southeast 426 490 41,500 -1,452 Descending Indianapolis Center
Wed 01:06:30 PM 38.0911 -83.8056 141° Southeast 420 483 40,000 -1,548 Descending Indianapolis Center
Wed 01:07:32 PM 37.9864 -83.6961 141° Southeast 416 479 38,300 -1,548 Descending Indianapolis Center
Wed 01:08:34 PM 37.8961 -83.6050 141° Southeast 413 475 36,800 -1,403 Descending Indianapolis Center
Wed 01:09:36 PM 37.8086 -83.5117 140° Southeast 411 473 35,400 -1,597 Descending Indianapolis Center
Wed 01:10:38 PM 37.7203 -83.4208 141° Southeast 408 470 33,500 -1,161 Descending Indianapolis Center
Wed 01:11:40 PM 37.6314 -83.3306 141° Southeast 410 472 33,000 -242 Descending Indianapolis Center
Wed 01:12:42 PM 37.5456 -83.2414 141° Southeast 400 460 33,000 -532 Level Indianapolis Center
Wed 01:13:44 PM 37.4442 -83.1378 141° Southeast 401 461 31,900 -968 Descending Indianapolis Center
Wed 01:14:46 PM 37.3564 -83.0489 141° Southeast 404 465 31,000 -919 Descending Indianapolis Center
Wed 01:15:48 PM 37.2694 -82.9606 141° Southeast 400 460 30,000 -919 Descending Indianapolis Center
Wed 01:16:50 PM 37.1817 -82.8719 141° Southeast 401 461 29,100 -536 Descending Indianapolis Center
Wed 01:17:40 PM 37.1050 -82.7947 141° Southeast 400 460 29,000 -55 Descending Atlanta Center
Wed 01:18:40 PM 37.0186 -82.7053 140° Southeast 400 460 29,000  Level Atlanta Center
Wed 01:19:40 PM 36.9322 -82.6183 141° Southeast 400 460 29,000  Level Atlanta Center
Wed 01:19:56 PM 36.9203 -82.6086 147° Southeast 396 456 29,000  Level Indianapolis Center
Wed 01:20:40 PM 36.8458 -82.5369 142° Southeast 400 460 29,000  Level Atlanta Center
Wed 01:21:40 PM 36.7531 -82.4583 146° Southeast 400 460 29,000  Level Atlanta Center
Wed 01:22:40 PM 36.6561 -82.3853 149° Southeast 408 470 29,000  Level Atlanta Center
Wed 01:23:40 PM 36.5464 -82.3022 149° Southeast 431 496 29,000  Level Atlanta Center
Wed 01:24:40 PM 36.4369 -82.2169 148° Southeast 454 522 29,000 -700 Level Atlanta Center
Wed 01:25:40 PM 36.3250 -82.1317 148° Southeast 470 541 27,600 -1,800 Descending Atlanta Center
Wed 01:26:40 PM 36.2322 -82.0594 148° Southeast 461 531 25,400 -2,250 Descending Atlanta Center
Wed 01:27:40 PM 36.1203 -81.9747 149° Southeast 443 510 23,100 -2,250 Descending Atlanta Center
Wed 01:28:40 PM 36.0250 -81.9025 148° Southeast 417 480 20,900 -2,150 Descending Atlanta Center
Wed 01:29:40 PM 35.9406 -81.8381 148° Southeast 388 447 18,800 -1,800 Descending Atlanta Center
Wed 01:30:40 PM 35.8558 -81.7764 149° Southeast 368 423 17,300 -1,750 Descending Atlanta Center
Wed 01:31:40 PM 35.7797 -81.7197 149° Southeast 337 388 15,300 -1,900 Descending Atlanta Center
Wed 01:32:40 PM 35.7056 -81.6631 148° Southeast 322 371 13,500 -1,857 Descending Atlanta Center
Wed 01:33:04 PM 35.6761 -81.6383 146° Southeast 300 345 12,700 -1,400 Descending Atlanta Center
Wed 01:33:40 PM 35.6358 -81.6086 149° Southeast 307 353 12,100 -438 Descending Atlanta Center
Wed 01:34:40 PM 35.5739 -81.5442 140° Southeast 300 345 12,000 -50 Descending Atlanta Center
Wed 01:35:40 PM 35.5222 -81.4617 128° Southeast 299 344 12,000  Level Atlanta Center
Wed 01:36:40 PM 35.4683 -81.3792 129° Southeast 306 352 12,000  Level Atlanta Center
Wed 01:37:40 PM 35.4144 -81.2967 129° Southeast 311 358 12,000  Level Atlanta Center
Wed 01:38:40 PM 35.3583 -81.2147 130° Southeast 311 358 12,000 -984 Level Atlanta Center
Wed 01:39:48 PM 35.2978 -81.1275 130° Southeast 302 348 9,900 -1,500 Descending Atlanta Center
Wed 01:40:40 PM 35.2464 -81.0736 139° Southeast 294 338 9,000 -806 Descending Atlanta Center
Wed 01:40:55 PM 35.2275 -81.0717 175° South 283 326 9,000 -1,105 Level Atlanta Center
Wed 01:41:56 PM 35.1503 -81.0667 177° South 273 314 7,600 -1,429 Descending Atlanta Center
Wed 01:42:40 PM 35.1022 -81.0608 174° South 275 316 6,500 -1,082 Descending Atlanta Center
Wed 01:43:58 PM 34.9975 -81.0519 176° South 276 318 5,400 -647 Descending Atlanta Center
Wed 01:44:59 PM 34.9203 -81.0444 175° South 256 295 5,000 -205 Descending Atlanta Center
Wed 01:45:55 PM 34.8594 -81.0392 176° South 227 261 5,000  Level Atlanta Center
Wed 01:46:56 PM 34.8292 -80.9922 128° Southeast 211 243 5,000  Level Atlanta Center
Wed 01:47:57 PM 34.8614 -80.9481 48° Northeast 200 230 5,000  Level Atlanta Center
Wed 01:48:58 PM 34.9156 -80.9433 North 191 220 5,000  Level Atlanta Center
Wed 01:49:59 PM 34.9719 -80.9464 357° North 183 211 5,000 -328 Level Atlanta Center
Wed 01:51:06 PM 35.0244 -80.9544 353° North 184 212 4,300 -836 Descending Atlanta Center
Wed 01:52:01 PM 35.0703 -80.9553 359° North 182 209 3,300 -991 Descending Atlanta Center
Wed 01:53:01 PM 35.1183 -80.9611 354° North 171 197 2,400 -843 Descending Atlanta Center
Wed 01:54:02 PM 35.1603 -80.9647 356° North 145 167 1,600 -738 Descending Atlanta Center
Wed 01:55:03 PM 35.1936 -80.9686 355° North 111 128 900 -689 Descending Atlanta Center
Wed 01:57:00 PM 35.2000 -80.9333 39° Northeast  Level FlightAware Approximate

Login

Don't have an account? Register now (free) for customized features, flight alerts, and more!